Time;durP1;ratioP1;P1;durP2;ratioP2;P2;SDS_P1;SDS_P2;PMS_P1;PMS_P2;Temp;Humidity;BMP_temperature;BMP_pressure;BME280_temperature;BME280_humidity;BME280_pressure;Samples;Min_cycle;Max_cycle;Signal;HPM_P1;HPM_P2
2021/01/11 00:00:46;;;;;;;;;;;23.60;20.30;;;;;;491776;240;1235;-69
2021/01/11 00:02:47;;;;;;;;;;;23.60;20.30;;;;;;491895;240;1205;-68
2021/01/11 00:04:49;;;;;;;;;;;23.60;20.30;;;;;;491928;240;2137;-68
2021/01/11 00:06:50;;;;;;;;;;;23.60;20.30;;;;;;491845;240;1061;-68
2021/01/11 00:08:51;;;;;;;;;;;23.60;20.20;;;;;;491807;240;1109;-68
2021/01/11 00:10:52;;;;;;;;;;;23.60;20.20;;;;;;491865;240;956;-68
2021/01/11 00:12:54;;;;;;;;;;;23.60;20.20;;;;;;491806;240;1112;-68
2021/01/11 00:14:55;;;;;;;;;;;23.60;20.20;;;;;;491960;240;928;-68
2021/01/11 00:16:56;;;;;;;;;;;23.60;20.20;;;;;;491804;240;1086;-68
2021/01/11 00:18:58;;;;;;;;;;;23.60;20.10;;;;;;491788;240;1137;-68
2021/01/11 00:20:59;;;;;;;;;;;23.60;20.20;;;;;;491831;240;1079;-68
2021/01/11 00:23:00;;;;;;;;;;;23.60;20.10;;;;;;491908;240;1184;-68
2021/01/11 00:25:01;;;;;;;;;;;23.60;20.10;;;;;;491906;240;2207;-68
2021/01/11 00:27:03;;;;;;;;;;;23.60;20.10;;;;;;491864;240;1130;-68
2021/01/11 00:29:04;;;;;;;;;;;23.60;20.10;;;;;;492004;240;1012;-68
2021/01/11 00:31:05;;;;;;;;;;;23.60;20.10;;;;;;491895;240;1135;-68
2021/01/11 00:33:07;;;;;;;;;;;23.60;20.10;;;;;;491822;240;1237;-68
2021/01/11 00:35:08;;;;;;;;;;;23.60;20.10;;;;;;491902;240;1092;-68
2021/01/11 00:37:09;;;;;;;;;;;23.60;20.10;;;;;;491785;240;1151;-68
2021/01/11 00:39:10;;;;;;;;;;;23.60;20.00;;;;;;491932;240;929;-68
2021/01/11 00:41:12;;;;;;;;;;;23.60;20.00;;;;;;491837;240;1095;-68
2021/01/11 00:43:14;;;;;;;;;;;23.50;20.00;;;;;;491907;240;1205;-68
2021/01/11 00:45:15;;;;;;;;;;;23.60;20.00;;;;;;491893;240;2132;-68
2021/01/11 00:47:16;;;;;;;;;;;23.60;20.00;;;;;;491782;240;1136;-68
2021/01/11 00:49:17;;;;;;;;;;;23.60;20.00;;;;;;491875;240;1050;-68
2021/01/11 00:51:19;;;;;;;;;;;23.50;20.00;;;;;;491893;240;1140;-68
2021/01/11 00:53:20;;;;;;;;;;;23.60;19.90;;;;;;491919;240;1119;-68
2021/01/11 00:55:21;;;;;;;;;;;23.60;20.00;;;;;;491851;240;992;-68
2021/01/11 00:57:22;;;;;;;;;;;23.50;19.90;;;;;;491798;240;1173;-68
2021/01/11 00:59:25;;;;;;;;;;;23.50;19.90;;;;;;491903;240;982;-68
2021/01/11 01:01:26;;;;;;;;;;;23.50;19.90;;;;;;491775;242;1375;-68
2021/01/11 01:03:27;;;;;;;;;;;23.50;19.90;;;;;;491861;240;1288;-68
2021/01/11 01:05:28;;;;;;;;;;;23.50;19.90;;;;;;491852;240;2137;-68
2021/01/11 01:07:30;;;;;;;;;;;23.50;19.80;;;;;;491865;240;1209;-68
2021/01/11 01:09:31;;;;;;;;;;;23.60;19.80;;;;;;491933;240;1030;-68
2021/01/11 01:11:32;;;;;;;;;;;23.50;19.80;;;;;;491867;240;1062;-68
2021/01/11 01:13:34;;;;;;;;;;;23.50;19.80;;;;;;492069;240;1206;-68
2021/01/11 01:15:35;;;;;;;;;;;23.60;19.80;;;;;;491816;240;1140;-68
2021/01/11 01:17:36;;;;;;;;;;;23.50;19.80;;;;;;491833;240;1193;-68
2021/01/11 01:19:37;;;;;;;;;;;23.60;19.80;;;;;;491885;240;1035;-68
2021/01/11 01:21:39;;;;;;;;;;;23.50;19.70;;;;;;491753;240;1103;-68
2021/01/11 01:23:40;;;;;;;;;;;23.60;19.70;;;;;;491880;240;991;-68
2021/01/11 01:25:44;;;;;;;;;;;23.60;19.70;;;;;;491912;240;2141;-68
2021/01/11 01:27:45;;;;;;;;;;;23.60;19.70;;;;;;491871;240;1334;-68
2021/01/11 01:29:46;;;;;;;;;;;23.50;19.70;;;;;;491963;240;1087;-68
2021/01/11 01:31:48;;;;;;;;;;;23.50;19.60;;;;;;491893;240;1146;-68
2021/01/11 01:33:49;;;;;;;;;;;23.50;19.60;;;;;;491905;240;1168;-68
2021/01/11 01:35:50;;;;;;;;;;;23.50;19.60;;;;;;491914;240;926;-69
2021/01/11 01:37:51;;;;;;;;;;;23.50;19.70;;;;;;491807;240;1088;-68
2021/01/11 01:39:53;;;;;;;;;;;23.50;19.60;;;;;;491948;240;937;-68
2021/01/11 01:41:54;;;;;;;;;;;23.50;19.60;;;;;;491886;240;1169;-68
2021/01/11 01:43:55;;;;;;;;;;;23.60;19.60;;;;;;491846;240;1066;-68
2021/01/11 01:45:57;;;;;;;;;;;23.60;19.60;;;;;;491864;240;2191;-68
2021/01/11 01:47:58;;;;;;;;;;;23.50;19.50;;;;;;491797;240;1117;-68
2021/01/11 01:49:59;;;;;;;;;;;23.50;19.50;;;;;;491906;240;1333;-68
2021/01/11 01:52:01;;;;;;;;;;;23.50;19.50;;;;;;491805;240;1083;-68
2021/01/11 01:54:02;;;;;;;;;;;23.50;19.50;;;;;;491906;240;989;-68
2021/01/11 01:56:03;;;;;;;;;;;23.50;19.50;;;;;;491812;240;1244;-68
2021/01/11 01:58:05;;;;;;;;;;;23.50;19.50;;;;;;491955;240;932;-68
2021/01/11 02:00:06;;;;;;;;;;;23.50;19.50;;;;;;491983;240;1211;-68
2021/01/11 02:02:07;;;;;;;;;;;23.50;19.50;;;;;;491834;240;1142;-68
2021/01/11 02:04:08;;;;;;;;;;;23.50;19.50;;;;;;491990;240;1190;-68
2021/01/11 02:06:10;;;;;;;;;;;23.50;19.40;;;;;;491800;240;2179;-68
2021/01/11 02:08:11;;;;;;;;;;;23.50;19.50;;;;;;491985;240;976;-68
2021/01/11 02:10:13;;;;;;;;;;;23.50;19.50;;;;;;491921;240;1089;-69
2021/01/11 02:12:14;;;;;;;;;;;23.50;19.50;;;;;;491797;240;1064;-68
2021/01/11 02:14:15;;;;;;;;;;;23.50;19.40;;;;;;491884;240;933;-68
2021/01/11 02:16:17;;;;;;;;;;;23.50;19.40;;;;;;491950;240;1077;-68
2021/01/11 02:18:18;;;;;;;;;;;23.50;19.40;;;;;;491894;240;1117;-68
2021/01/11 02:20:19;;;;;;;;;;;23.50;19.40;;;;;;491885;240;966;-69
2021/01/11 02:22:20;;;;;;;;;;;23.50;19.40;;;;;;491905;240;1224;-68
2021/01/11 02:24:22;;;;;;;;;;;23.40;19.40;;;;;;491953;240;1151;-68
2021/01/11 02:26:23;;;;;;;;;;;23.50;19.50;;;;;;491850;240;2139;-68
2021/01/11 02:28:25;;;;;;;;;;;23.50;19.40;;;;;;491907;240;1075;-68
2021/01/11 02:30:26;;;;;;;;;;;23.50;19.50;;;;;;491772;240;1127;-68
2021/01/11 02:32:27;;;;;;;;;;;23.50;19.50;;;;;;491839;240;1225;-68
2021/01/11 02:34:28;;;;;;;;;;;23.50;19.40;;;;;;491953;240;1189;-68
2021/01/11 02:36:30;;;;;;;;;;;23.40;19.40;;;;;;491724;240;1103;-68
2021/01/11 02:38:31;;;;;;;;;;;23.40;19.40;;;;;;491930;240;1079;-68
2021/01/11 02:40:32;;;;;;;;;;;23.50;19.50;;;;;;491851;240;1114;-68
2021/01/11 02:42:34;;;;;;;;;;;23.50;19.40;;;;;;491951;240;1140;-68
2021/01/11 02:44:35;;;;;;;;;;;23.50;19.40;;;;;;491958;240;1085;-68
2021/01/11 02:46:36;;;;;;;;;;;23.50;19.40;;;;;;491863;240;2183;-68
2021/01/11 02:48:37;;;;;;;;;;;23.50;19.40;;;;;;491937;240;1207;-68
2021/01/11 02:50:39;;;;;;;;;;;23.50;19.40;;;;;;491892;240;1065;-68
2021/01/11 02:52:40;;;;;;;;;;;23.50;19.40;;;;;;491847;240;1131;-68
2021/01/11 02:54:42;;;;;;;;;;;23.50;19.40;;;;;;491863;240;962;-68
2021/01/11 02:56:43;;;;;;;;;;;23.50;19.40;;;;;;491796;240;1193;-68
2021/01/11 02:58:44;;;;;;;;;;;23.50;19.40;;;;;;491941;240;997;-68
2021/01/11 03:00:46;;;;;;;;;;;23.50;19.40;;;;;;491933;240;1279;-68
2021/01/11 03:02:47;;;;;;;;;;;23.50;19.40;;;;;;491839;240;1184;-68
2021/01/11 03:04:48;;;;;;;;;;;23.50;19.30;;;;;;491926;240;1161;-68
2021/01/11 03:06:49;;;;;;;;;;;23.50;19.40;;;;;;491886;240;2177;-68
2021/01/11 03:08:51;;;;;;;;;;;23.50;19.40;;;;;;491922;240;1257;-68
2021/01/11 03:10:52;;;;;;;;;;;23.50;19.30;;;;;;491881;240;1135;-68
2021/01/11 03:12:53;;;;;;;;;;;23.50;19.40;;;;;;491887;240;1166;-68
2021/01/11 03:14:55;;;;;;;;;;;23.50;19.30;;;;;;491907;240;1119;-68
2021/01/11 03:16:56;;;;;;;;;;;23.50;19.30;;;;;;491940;240;1189;-68
2021/01/11 03:18:57;;;;;;;;;;;23.50;19.30;;;;;;491979;240;1190;-68
2021/01/11 03:20:58;;;;;;;;;;;23.50;19.40;;;;;;491986;240;933;-68
2021/01/11 03:23:00;;;;;;;;;;;23.50;19.30;;;;;;491879;240;1214;-68
2021/01/11 03:25:01;;;;;;;;;;;23.60;19.30;;;;;;491911;240;932;-68
2021/01/11 03:27:02;;;;;;;;;;;23.50;19.30;;;;;;491941;240;2195;-68
2021/01/11 03:29:03;;;;;;;;;;;23.50;19.30;;;;;;491910;240;1032;-68
2021/01/11 03:31:05;;;;;;;;;;;23.60;19.30;;;;;;492000;240;935;-68
2021/01/11 03:33:06;;;;;;;;;;;23.50;19.30;;;;;;491878;240;1197;-68
2021/01/11 03:35:07;;;;;;;;;;;23.60;19.30;;;;;;491913;240;1104;-68
2021/01/11 03:37:09;;;;;;;;;;;23.60;19.30;;;;;;491876;240;1085;-68
2021/01/11 03:39:10;;;;;;;;;;;23.50;19.30;;;;;;491882;240;1196;-68
2021/01/11 03:41:11;;;;;;;;;;;23.60;19.30;;;;;;491844;240;1110;-68
2021/01/11 03:43:12;;;;;;;;;;;23.60;19.30;;;;;;491859;240;1210;-68
2021/01/11 03:45:14;;;;;;;;;;;23.60;19.30;;;;;;491947;240;1034;-68
2021/01/11 03:47:15;;;;;;;;;;;23.60;19.30;;;;;;491798;240;2124;-68
2021/01/11 03:49:17;;;;;;;;;;;23.50;19.30;;;;;;491949;240;1273;-68
2021/01/11 03:51:18;;;;;;;;;;;23.50;19.30;;;;;;492020;240;1175;-68
2021/01/11 03:53:20;;;;;;;;;;;23.50;19.30;;;;;;491929;240;1195;-68
2021/01/11 03:55:21;;;;;;;;;;;23.50;19.30;;;;;;491992;240;928;-68
2021/01/11 03:57:22;;;;;;;;;;;23.50;19.30;;;;;;491920;240;1206;-68
2021/01/11 03:59:24;;;;;;;;;;;23.50;19.30;;;;;;491959;240;1046;-68
2021/01/11 04:01:27;;;;;;;;;;;23.50;19.30;;;;;;491910;240;1086;-68
2021/01/11 04:03:27;;;;;;;;;;;23.50;19.30;;;;;;491874;241;1385;-68
2021/01/11 04:05:28;;;;;;;;;;;23.50;19.30;;;;;;491970;240;1168;-68
2021/01/11 04:07:29;;;;;;;;;;;23.50;19.30;;;;;;491844;240;2395;-68
2021/01/11 04:09:31;;;;;;;;;;;23.50;19.30;;;;;;491887;240;1108;-68
2021/01/11 04:11:32;;;;;;;;;;;23.50;19.30;;;;;;491889;240;941;-68
2021/01/11 04:13:33;;;;;;;;;;;23.50;19.30;;;;;;491890;240;1201;-68
2021/01/11 04:15:34;;;;;;;;;;;23.60;19.30;;;;;;491903;240;956;-68
2021/01/11 04:17:36;;;;;;;;;;;23.50;19.20;;;;;;491856;240;1133;-68
2021/01/11 04:19:37;;;;;;;;;;;23.50;19.30;;;;;;491925;240;1150;-68
2021/01/11 04:21:38;;;;;;;;;;;23.50;19.30;;;;;;491839;240;1145;-68
2021/01/11 04:23:40;;;;;;;;;;;23.50;19.30;;;;;;491879;240;1203;-68
2021/01/11 04:25:41;;;;;;;;;;;23.50;19.30;;;;;;491866;240;969;-68
2021/01/11 04:27:42;;;;;;;;;;;23.50;19.30;;;;;;491862;240;2192;-68
2021/01/11 04:29:43;;;;;;;;;;;23.50;19.30;;;;;;491896;240;953;-68
2021/01/11 04:31:45;;;;;;;;;;;23.50;19.30;;;;;;491852;240;1087;-68
2021/01/11 04:33:46;;;;;;;;;;;23.40;19.30;;;;;;491897;240;1041;-68
2021/01/11 04:35:47;;;;;;;;;;;23.40;19.30;;;;;;491870;240;1261;-68
2021/01/11 04:37:48;;;;;;;;;;;23.40;19.40;;;;;;491860;240;1205;-68
2021/01/11 04:39:50;;;;;;;;;;;23.50;19.40;;;;;;491926;240;1093;-68
2021/01/11 04:41:51;;;;;;;;;;;23.40;19.40;;;;;;491846;240;1099;-68
2021/01/11 04:43:52;;;;;;;;;;;23.40;19.40;;;;;;491922;240;1033;-68
2021/01/11 04:45:54;;;;;;;;;;;23.40;19.40;;;;;;491899;240;965;-68
2021/01/11 04:47:55;;;;;;;;;;;23.40;19.40;;;;;;491917;240;2229;-68
2021/01/11 04:49:56;;;;;;;;;;;23.40;19.40;;;;;;491854;240;1148;-68
2021/01/11 04:51:58;;;;;;;;;;;23.40;19.40;;;;;;491780;240;1057;-68
2021/01/11 04:53:59;;;;;;;;;;;23.40;19.40;;;;;;491888;240;997;-68
2021/01/11 04:56:00;;;;;;;;;;;23.40;19.40;;;;;;491778;240;1064;-68
2021/01/11 04:58:02;;;;;;;;;;;23.40;19.40;;;;;;491921;240;947;-68
2021/01/11 05:00:03;;;;;;;;;;;23.30;19.40;;;;;;491843;240;1230;-68
2021/01/11 05:02:05;;;;;;;;;;;23.40;19.40;;;;;;491817;240;1502;-68
2021/01/11 05:04:06;;;;;;;;;;;23.40;19.40;;;;;;491895;240;971;-68
2021/01/11 05:06:07;;;;;;;;;;;23.40;19.40;;;;;;491688;240;2195;-68
2021/01/11 05:08:08;;;;;;;;;;;23.40;19.40;;;;;;491851;240;972;-68
2021/01/11 05:10:10;;;;;;;;;;;23.40;19.40;;;;;;491818;240;1187;-68
2021/01/11 05:12:11;;;;;;;;;;;23.40;19.40;;;;;;491794;240;944;-68
2021/01/11 05:14:12;;;;;;;;;;;23.40;19.40;;;;;;491843;240;969;-68
2021/01/11 05:16:14;;;;;;;;;;;23.40;19.40;;;;;;491702;240;1126;-68
2021/01/11 05:18:15;;;;;;;;;;;23.40;19.40;;;;;;491837;240;1428;-68
2021/01/11 05:20:16;;;;;;;;;;;23.40;19.50;;;;;;491727;240;1235;-68
2021/01/11 05:22:17;;;;;;;;;;;23.40;19.50;;;;;;491741;240;1218;-70
2021/01/11 05:24:19;;;;;;;;;;;23.40;19.50;;;;;;491773;240;943;-68
2021/01/11 05:26:20;;;;;;;;;;;23.40;19.50;;;;;;491750;240;2187;-68
2021/01/11 05:28:21;;;;;;;;;;;23.40;19.50;;;;;;491818;240;1084;-68
2021/01/11 05:30:22;;;;;;;;;;;23.40;19.50;;;;;;491689;240;1071;-68
2021/01/11 05:32:24;;;;;;;;;;;23.40;19.50;;;;;;491724;240;1092;-68
2021/01/11 05:34:25;;;;;;;;;;;23.40;19.50;;;;;;491646;240;971;-68
2021/01/11 05:36:26;;;;;;;;;;;23.40;19.50;;;;;;491649;240;1219;-69
2021/01/11 05:38:28;;;;;;;;;;;23.40;19.50;;;;;;491768;240;1046;-70
2021/01/11 05:40:29;;;;;;;;;;;23.40;19.50;;;;;;491722;240;1048;-68
2021/01/11 05:42:30;;;;;;;;;;;23.40;19.50;;;;;;491686;240;1271;-68
2021/01/11 05:44:32;;;;;;;;;;;23.40;19.50;;;;;;491703;240;973;-68
2021/01/11 05:46:33;;;;;;;;;;;23.40;19.50;;;;;;491581;240;2132;-70
2021/01/11 05:48:34;;;;;;;;;;;23.40;19.50;;;;;;491541;240;1212;-68
2021/01/11 05:50:36;;;;;;;;;;;23.40;19.50;;;;;;491632;240;1084;-68
2021/01/11 05:52:37;;;;;;;;;;;23.40;19.50;;;;;;491695;240;1217;-68
2021/01/11 05:54:38;;;;;;;;;;;23.40;19.50;;;;;;491714;240;1017;-68
2021/01/11 05:56:39;;;;;;;;;;;23.40;19.50;;;;;;491650;240;1054;-68
2021/01/11 05:58:42;;;;;;;;;;;23.50;19.50;;;;;;491667;240;979;-68
2021/01/11 06:00:42;;;;;;;;;;;23.40;19.40;;;;;;491598;240;1492;-68
2021/01/11 06:02:43;;;;;;;;;;;23.50;19.40;;;;;;491436;240;962;-68
2021/01/11 06:04:45;;;;;;;;;;;23.50;19.40;;;;;;491641;240;1220;-68
2021/01/11 06:06:46;;;;;;;;;;;23.50;19.50;;;;;;491556;240;2149;-68
2021/01/11 06:08:47;;;;;;;;;;;23.50;19.50;;;;;;491636;240;1101;-68
2021/01/11 06:10:50;;;;;;;;;;;23.50;19.50;;;;;;491525;240;1288;-68
2021/01/11 06:12:50;;;;;;;;;;;23.50;19.50;;;;;;491500;242;1404;-68
2021/01/11 06:14:51;;;;;;;;;;;23.40;19.50;;;;;;491569;240;1213;-70
2021/01/11 06:16:52;;;;;;;;;;;23.50;19.40;;;;;;491522;240;1128;-68
2021/01/11 06:18:53;;;;;;;;;;;23.50;19.50;;;;;;491627;240;1088;-68
2021/01/11 06:20:55;;;;;;;;;;;23.50;19.50;;;;;;491498;240;1231;-68
2021/01/11 06:22:56;;;;;;;;;;;23.50;19.50;;;;;;491586;240;1118;-68
2021/01/11 06:24:57;;;;;;;;;;;23.50;19.50;;;;;;491575;240;1266;-68
2021/01/11 06:26:59;;;;;;;;;;;23.50;19.50;;;;;;491482;240;2186;-68
2021/01/11 06:29:00;;;;;;;;;;;23.40;19.50;;;;;;491470;240;961;-68
2021/01/11 06:31:01;;;;;;;;;;;23.40;19.50;;;;;;491385;240;1137;-68
2021/01/11 06:33:02;;;;;;;;;;;23.50;19.60;;;;;;491484;240;1109;-68
2021/01/11 06:35:04;;;;;;;;;;;23.40;19.60;;;;;;491500;240;1228;-68
2021/01/11 06:37:05;;;;;;;;;;;23.50;19.60;;;;;;491543;240;1212;-68
2021/01/11 06:39:06;;;;;;;;;;;23.50;19.60;;;;;;491572;240;1024;-68
2021/01/11 06:41:07;;;;;;;;;;;23.50;19.60;;;;;;491539;240;989;-68
2021/01/11 06:43:09;;;;;;;;;;;23.50;19.60;;;;;;491603;240;1038;-68
2021/01/11 06:45:10;;;;;;;;;;;23.50;19.60;;;;;;491517;240;1398;-68
2021/01/11 06:47:11;;;;;;;;;;;23.50;19.60;;;;;;491514;240;2184;-70
2021/01/11 06:49:13;;;;;;;;;;;23.50;19.60;;;;;;491629;240;1032;-70
2021/01/11 06:51:14;;;;;;;;;;;23.50;19.60;;;;;;491521;240;1237;-70
2021/01/11 06:53:15;;;;;;;;;;;23.50;19.60;;;;;;491460;240;997;-70
2021/01/11 06:55:17;;;;;;;;;;;23.50;19.60;;;;;;491368;240;1207;-70
2021/01/11 06:57:19;;;;;;;;;;;23.50;19.60;;;;;;491289;240;1143;-70
2021/01/11 06:59:19;;;;;;;;;;;23.50;19.60;;;;;;491349;240;2278;-70
2021/01/11 07:01:20;;;;;;;;;;;23.50;19.60;;;;;;491421;240;1151;-70
2021/01/11 07:03:21;;;;;;;;;;;23.50;19.60;;;;;;491487;240;968;-70
2021/01/11 07:05:23;;;;;;;;;;;23.50;19.60;;;;;;491479;240;1203;-70
2021/01/11 07:07:24;;;;;;;;;;;23.50;19.60;;;;;;491366;240;2152;-70
2021/01/11 07:09:26;;;;;;;;;;;23.60;19.60;;;;;;491453;240;945;-70
2021/01/11 07:11:27;;;;;;;;;;;23.60;19.60;;;;;;491317;240;1176;-70
2021/01/11 07:13:28;;;;;;;;;;;23.60;19.60;;;;;;491448;240;972;-70
2021/01/11 07:15:30;;;;;;;;;;;23.50;19.60;;;;;;491307;240;1126;-70
2021/01/11 07:17:31;;;;;;;;;;;23.50;19.60;;;;;;491228;240;1068;-70
2021/01/11 07:19:32;;;;;;;;;;;23.50;19.60;;;;;;491375;240;1106;-70
2021/01/11 07:21:35;;;;;;;;;;;23.50;19.70;;;;;;491259;240;1148;-70
2021/01/11 07:23:35;;;;;;;;;;;23.50;19.70;;;;;;491352;240;1389;-70
2021/01/11 07:25:37;;;;;;;;;;;23.50;19.70;;;;;;491295;240;1236;-70
2021/01/11 07:27:38;;;;;;;;;;;23.40;19.70;;;;;;491378;240;2137;-70
2021/01/11 07:29:39;;;;;;;;;;;23.40;19.70;;;;;;491457;240;1169;-70
2021/01/11 07:31:41;;;;;;;;;;;23.40;19.70;;;;;;491457;240;1345;-70
2021/01/11 07:33:42;;;;;;;;;;;23.40;19.70;;;;;;491385;240;1140;-70
2021/01/11 07:35:43;;;;;;;;;;;23.40;19.70;;;;;;491294;240;1219;-70
2021/01/11 07:37:44;;;;;;;;;;;23.40;19.70;;;;;;491358;240;1173;-70
2021/01/11 07:39:46;;;;;;;;;;;23.40;19.80;;;;;;491401;240;1194;-70
2021/01/11 07:41:47;;;;;;;;;;;23.40;19.80;;;;;;491329;240;1190;-70
2021/01/11 07:43:48;;;;;;;;;;;23.40;19.70;;;;;;491321;240;1116;-70
2021/01/11 07:45:49;;;;;;;;;;;23.30;19.70;;;;;;491264;240;1207;-70
2021/01/11 07:47:51;;;;;;;;;;;23.40;19.80;;;;;;491176;240;2407;-70
2021/01/11 07:49:53;;;;;;;;;;;23.40;19.80;;;;;;491098;240;1240;-70
2021/01/11 07:51:54;;;;;;;;;;;23.40;19.80;;;;;;491115;240;1534;-70
2021/01/11 07:53:55;;;;;;;;;;;23.40;19.90;;;;;;491220;240;966;-70
2021/01/11 07:55:57;;;;;;;;;;;23.40;19.90;;;;;;491191;240;1084;-70
2021/01/11 07:57:58;;;;;;;;;;;23.40;19.90;;;;;;491273;240;1033;-70
2021/01/11 07:59:59;;;;;;;;;;;23.40;19.90;;;;;;491311;240;1267;-70
2021/01/11 08:02:02;;;;;;;;;;;23.40;19.90;;;;;;491233;240;1141;-70
2021/01/11 08:04:02;;;;;;;;;;;23.40;19.90;;;;;;491188;242;1308;-70
2021/01/11 08:06:03;;;;;;;;;;;23.40;19.90;;;;;;491324;240;1094;-70
2021/01/11 08:08:05;;;;;;;;;;;23.40;19.90;;;;;;491257;240;2157;-70
2021/01/11 08:10:06;;;;;;;;;;;23.30;19.90;;;;;;491288;240;994;-70
2021/01/11 08:12:07;;;;;;;;;;;23.30;19.90;;;;;;491162;240;1188;-70
2021/01/11 08:14:08;;;;;;;;;;;23.40;20.00;;;;;;491182;240;1071;-70
2021/01/11 08:16:10;;;;;;;;;;;23.40;20.00;;;;;;491144;240;1029;-70
2021/01/11 08:18:11;;;;;;;;;;;23.40;20.00;;;;;;491183;240;1019;-70
2021/01/11 08:20:12;;;;;;;;;;;23.40;20.00;;;;;;491137;240;980;-70
2021/01/11 08:22:13;;;;;;;;;;;23.30;20.00;;;;;;491066;240;1182;-70
2021/01/11 08:24:15;;;;;;;;;;;23.30;20.00;;;;;;491189;240;1124;-70
2021/01/11 08:26:16;;;;;;;;;;;23.30;20.00;;;;;;491090;240;1076;-70
2021/01/11 08:28:17;;;;;;;;;;;23.30;20.00;;;;;;491118;240;2176;-70
2021/01/11 08:30:20;;;;;;;;;;;23.30;20.00;;;;;;491239;240;995;-70
2021/01/11 08:32:20;;;;;;;;;;;23.30;20.10;;;;;;491173;240;1278;-70
2021/01/11 08:34:21;;;;;;;;;;;23.30;20.10;;;;;;491199;240;1121;-70
2021/01/11 08:36:23;;;;;;;;;;;23.30;20.00;;;;;;491129;240;1048;-70
2021/01/11 08:38:24;;;;;;;;;;;23.40;20.10;;;;;;491159;240;1146;-70
2021/01/11 08:40:26;;;;;;;;;;;23.30;20.00;;;;;;491141;240;1332;-70
2021/01/11 08:42:27;;;;;;;;;;;23.30;20.10;;;;;;491260;240;1075;-70
2021/01/11 08:44:28;;;;;;;;;;;23.30;20.10;;;;;;491306;240;964;-70
2021/01/11 08:46:30;;;;;;;;;;;23.30;20.10;;;;;;491251;240;1075;-70
2021/01/11 08:48:31;;;;;;;;;;;23.30;20.10;;;;;;491184;240;2404;-70
2021/01/11 08:50:34;;;;;;;;;;;23.30;20.10;;;;;;491164;240;1122;-70
2021/01/11 08:52:34;;;;;;;;;;;23.30;20.20;;;;;;491137;241;1337;-70
2021/01/11 08:54:35;;;;;;;;;;;23.30;20.10;;;;;;490988;240;993;-72
2021/01/11 08:56:37;;;;;;;;;;;23.30;20.10;;;;;;490994;240;1103;-71
2021/01/11 08:58:37;;;;;;;;;;;23.30;20.10;;;;;;490988;240;1458;-71
2021/01/11 09:00:40;;;;;;;;;;;23.30;20.10;;;;;;490934;240;968;-71
2021/01/11 09:02:42;;;;;;;;;;;23.30;20.10;;;;;;491016;241;1228;-71
2021/01/11 09:04:43;;;;;;;;;;;23.30;20.10;;;;;;491265;240;972;-71
2021/01/11 09:06:44;;;;;;;;;;;23.30;20.10;;;;;;491128;240;1110;-71
2021/01/11 09:08:46;;;;;;;;;;;23.40;20.10;;;;;;491166;240;2183;-71
2021/01/11 09:10:47;;;;;;;;;;;23.30;20.20;;;;;;491336;240;1081;-71
2021/01/11 09:12:48;;;;;;;;;;;23.30;20.20;;;;;;491226;240;1271;-71
2021/01/11 09:14:50;;;;;;;;;;;23.30;20.20;;;;;;491070;240;1017;-71
2021/01/11 09:16:51;;;;;;;;;;;23.30;20.20;;;;;;491145;240;1142;-71
2021/01/11 09:18:52;;;;;;;;;;;23.30;20.20;;;;;;491109;240;1123;-71
2021/01/11 09:20:54;;;;;;;;;;;23.30;20.20;;;;;;491027;240;1059;-71
2021/01/11 09:22:55;;;;;;;;;;;23.30;20.20;;;;;;491133;240;1136;-71
2021/01/11 09:24:56;;;;;;;;;;;23.40;20.20;;;;;;491095;240;1227;-71
2021/01/11 09:26:58;;;;;;;;;;;23.30;20.20;;;;;;491064;240;1072;-72
2021/01/11 09:28:59;;;;;;;;;;;23.30;20.20;;;;;;490969;240;2125;-72
2021/01/11 09:31:00;;;;;;;;;;;23.30;20.30;;;;;;491020;240;1146;-72
2021/01/11 09:33:01;;;;;;;;;;;23.30;20.30;;;;;;491103;240;1151;-71
2021/01/11 09:35:03;;;;;;;;;;;23.40;20.40;;;;;;491288;240;966;-71
2021/01/11 09:37:04;;;;;;;;;;;23.30;20.30;;;;;;491182;240;1217;-71
2021/01/11 09:39:05;;;;;;;;;;;23.30;20.40;;;;;;491118;240;1179;-71
2021/01/11 09:41:06;;;;;;;;;;;23.30;20.40;;;;;;491011;240;1121;-71
2021/01/11 09:43:09;;;;;;;;;;;23.30;20.40;;;;;;491116;240;1036;-71
2021/01/11 09:45:10;;;;;;;;;;;23.30;20.40;;;;;;491046;240;955;-71
2021/01/11 09:47:11;;;;;;;;;;;23.30;20.40;;;;;;491047;240;1257;-71
2021/01/11 09:49:12;;;;;;;;;;;23.30;20.40;;;;;;491145;240;2176;-71
2021/01/11 09:51:14;;;;;;;;;;;23.30;20.40;;;;;;491123;240;1110;-71
2021/01/11 09:53:15;;;;;;;;;;;23.30;20.40;;;;;;490947;240;1072;-71
2021/01/11 09:55:16;;;;;;;;;;;23.30;20.40;;;;;;491052;240;1291;-71
2021/01/11 09:57:18;;;;;;;;;;;23.30;20.40;;;;;;491243;240;1038;-71
2021/01/11 09:59:19;;;;;;;;;;;23.30;20.40;;;;;;491047;240;1141;-71
2021/01/11 10:01:20;;;;;;;;;;;23.30;20.50;;;;;;491196;240;1197;-71
2021/01/11 10:03:21;;;;;;;;;;;23.40;20.40;;;;;;491204;240;1152;-71
2021/01/11 10:05:23;;;;;;;;;;;23.40;20.40;;;;;;491146;240;1078;-71
2021/01/11 10:07:24;;;;;;;;;;;23.40;20.40;;;;;;491189;240;1105;-71
2021/01/11 10:09:25;;;;;;;;;;;23.40;20.40;;;;;;491169;240;2184;-71
2021/01/11 10:11:27;;;;;;;;;;;23.40;20.40;;;;;;491197;240;1244;-71
2021/01/11 10:13:28;;;;;;;;;;;23.40;20.40;;;;;;491252;240;1099;-71
2021/01/11 10:15:30;;;;;;;;;;;23.40;20.40;;;;;;491189;240;1177;-71
2021/01/11 10:17:31;;;;;;;;;;;23.40;20.40;;;;;;491159;240;1056;-71
2021/01/11 10:19:33;;;;;;;;;;;23.40;20.40;;;;;;491135;240;1028;-71
2021/01/11 10:21:34;;;;;;;;;;;23.50;20.40;;;;;;491156;240;1209;-71
2021/01/11 10:23:35;;;;;;;;;;;23.40;20.30;;;;;;491133;240;1137;-71
2021/01/11 10:25:37;;;;;;;;;;;23.40;20.40;;;;;;491190;240;1134;-71
2021/01/11 10:27:38;;;;;;;;;;;23.40;20.30;;;;;;491150;240;1332;-71
2021/01/11 10:29:39;;;;;;;;;;;23.40;20.30;;;;;;491064;240;2187;-71
2021/01/11 10:31:40;;;;;;;;;;;23.40;20.30;;;;;;491066;240;1073;-71
2021/01/11 10:33:42;;;;;;;;;;;23.40;20.30;;;;;;490947;240;1058;-70
2021/01/11 10:35:43;;;;;;;;;;;23.40;20.30;;;;;;491077;240;1016;-71
2021/01/11 10:37:44;;;;;;;;;;;23.40;20.30;;;;;;491016;240;1534;-71
2021/01/11 10:39:45;;;;;;;;;;;23.40;20.30;;;;;;491040;240;1220;-71
2021/01/11 10:41:47;;;;;;;;;;;23.40;20.40;;;;;;491063;240;1182;-71
2021/01/11 10:43:48;;;;;;;;;;;23.40;20.40;;;;;;490874;240;1217;-71
2021/01/11 10:45:49;;;;;;;;;;;23.40;20.40;;;;;;490901;240;980;-71
2021/01/11 10:47:51;;;;;;;;;;;23.40;20.40;;;;;;491141;240;998;-71
2021/01/11 10:49:52;;;;;;;;;;;23.40;20.40;;;;;;491015;240;2136;-71
2021/01/11 10:51:55;;;;;;;;;;;23.40;20.40;;;;;;491048;240;1001;-71
2021/01/11 10:53:55;;;;;;;;;;;23.30;20.30;;;;;;490952;240;1420;-71
2021/01/11 10:55:56;;;;;;;;;;;23.30;20.40;;;;;;490873;240;1123;-71
2021/01/11 10:57:57;;;;;;;;;;;23.30;20.40;;;;;;490840;240;1254;-71
2021/01/11 10:59:58;;;;;;;;;;;23.30;20.40;;;;;;490958;240;1099;-71
2021/01/11 11:02:00;;;;;;;;;;;23.20;20.40;;;;;;491002;240;1035;-71
2021/01/11 11:04:01;;;;;;;;;;;23.20;20.50;;;;;;491064;240;1282;-71
2021/01/11 11:06:02;;;;;;;;;;;23.20;20.50;;;;;;491083;240;1126;-71
2021/01/11 11:08:04;;;;;;;;;;;23.20;20.50;;;;;;491112;240;1140;-71
2021/01/11 11:10:05;;;;;;;;;;;23.20;20.50;;;;;;491068;240;2109;-71
2021/01/11 11:12:06;;;;;;;;;;;23.20;20.50;;;;;;491040;240;1050;-71
2021/01/11 11:14:07;;;;;;;;;;;23.20;20.50;;;;;;491068;240;1084;-71
2021/01/11 11:16:09;;;;;;;;;;;23.20;20.60;;;;;;491121;240;1064;-71
2021/01/11 11:18:10;;;;;;;;;;;23.20;20.60;;;;;;491065;240;1122;-72
2021/01/11 11:20:12;;;;;;;;;;;23.00;20.60;;;;;;491172;240;1250;-71
2021/01/11 11:22:13;;;;;;;;;;;23.10;20.70;;;;;;491048;241;1442;-71
2021/01/11 11:24:14;;;;;;;;;;;23.10;20.60;;;;;;491037;240;1240;-71
2021/01/11 11:26:15;;;;;;;;;;;23.10;20.60;;;;;;491189;240;967;-72
2021/01/11 11:28:16;;;;;;;;;;;23.20;20.60;;;;;;491309;240;2128;-71
2021/01/11 11:30:18;;;;;;;;;;;23.20;20.60;;;;;;491290;240;1126;-71
2021/01/11 11:32:19;;;;;;;;;;;23.10;20.60;;;;;;491333;240;1003;-71
2021/01/11 11:34:20;;;;;;;;;;;23.10;20.60;;;;;;491276;240;1138;-71
2021/01/11 11:36:21;;;;;;;;;;;23.10;20.60;;;;;;491249;240;1050;-71
2021/01/11 11:38:23;;;;;;;;;;;23.10;20.60;;;;;;491091;240;972;-71
2021/01/11 11:40:25;;;;;;;;;;;23.10;20.70;;;;;;491047;240;1325;-71
2021/01/11 11:42:27;;;;;;;;;;;23.10;20.70;;;;;;491209;240;1008;-71
2021/01/11 11:44:28;;;;;;;;;;;23.10;20.70;;;;;;491207;240;1206;-71
2021/01/11 11:46:29;;;;;;;;;;;23.10;20.70;;;;;;491259;240;1091;-71
2021/01/11 11:48:31;;;;;;;;;;;23.10;20.70;;;;;;491186;240;2183;-71
2021/01/11 11:50:32;;;;;;;;;;;23.10;20.70;;;;;;491141;240;982;-71
2021/01/11 11:52:34;;;;;;;;;;;23.10;20.70;;;;;;491265;240;1118;-71
2021/01/11 11:54:35;;;;;;;;;;;23.00;20.60;;;;;;491212;240;1143;-71
2021/01/11 11:56:36;;;;;;;;;;;23.10;20.70;;;;;;491306;240;1215;-71